Bookmark and Share
Track history (hours):
 

Drifting buoy 47557

Last reported at 2012-Sep-27 14:37 UTC. Time now 2014-Apr-25 08:01 UTC.
Position N 76°40' W 092°02'.
Warning: this ship's position is years out of date!

NotesDate/timePositionNaut miles runAvg speedWind from/ knotsBaromVisibWave heightAir tempDewpointWater temp
2012-Sep-27 14:37N 76°40' W 092°02'0 0.0
2012-Sep-27 14:27N 76°40' W 092°02'0 0.0
2012-Sep-27 14:00N 76°40' W 092°02'0 0.0
2012-Sep-27 13:45N 76°40' W 092°02'0 4.5
2012-Sep-27 13:39N 76°40' W 092°03'0 2.6
2012-Sep-27 13:34N 76°40' W 092°03'0 3.7
2012-Sep-27 13:28N 76°40' W 092°02'026.8
2012-Sep-27 13:27N 76°40' W 092°03'0 0.0
2012-Sep-27 13:00N 76°40' W 092°03'0 0.0
2012-Sep-27 12:49N 76°40' W 092°03'0 3.3
2012-Sep-27 12:41N 76°40' W 092°03'0 0.0
2012-Sep-27 12:40N 76°40' W 092°03'0 0.0
2012-Sep-27 12:23N 76°40' W 092°03'0 1.5
2012-Sep-27 12:08N 76°40' W 092°04'0 0.0
2012-Sep-27 12:07N 76°40' W 092°04'0 0.0
2012-Sep-27 11:44N 76°40' W 092°04'0 0.0
2012-Sep-27 11:13N 76°40' W 092°04'0 0.0
2012-Sep-27 11:11N 76°40' W 092°04'0 2.0
2012-Sep-27 10:58N 76°40' W 092°04'0 0.9
2012-Sep-27 10:43N 76°40' W 092°03'0 0.0
2012-Sep-27 10:41N 76°40' W 092°03'0 0.0
2012-Sep-27 10:38N 76°40' W 092°03'0 0.0
2012-Sep-27 10:26N 76°40' W 092°03'0 0.7
2012-Sep-27 10:05N 76°40' W 092°02'0 0.0
2012-Sep-27 09:28N 76°40' W 092°02'0 0.6
2012-Sep-27 09:01N 76°40' W 092°03'0 0.0
2012-Sep-27 08:56N 76°40' W 092°03'0 0.0
2012-Sep-27 08:41N 76°40' W 092°03'0 0.2
2012-Sep-27 08:20N 76°40' W 092°03'0 0.0
2012-Sep-27 07:47N 76°40' W 092°03'0 3.5
2012-Sep-27 07:41N 76°40' W 092°05'0 0.0
2012-Sep-27 07:02N 76°40' W 092°05'1 1.7
2012-Sep-27 06:39N 76°40' W 092°04'1 1.0
2012-Sep-27 06:05N 76°40' W 092°04'0 4.6
2012-Sep-27 06:00N 76°41' W 092°03'0 6.9
2012-Sep-27 05:56N 76°40' W 092°04'0 0.0
2012-Sep-27 05:47N 76°40' W 092°04'0 0.0
2012-Sep-27 05:18N 76°40' W 092°04'0 0.0
2012-Sep-27 04:58N 76°40' W 092°04'0 0.1
2012-Sep-27 04:21N 76°40' W 092°04'0 0.0
2012-Sep-27 04:19N 76°40' W 092°04'0 5.1
2012-Sep-27 04:16N 76°40' W 092°05'0 2.3
2012-Sep-27 04:03N 76°40' W 092°03'0 0.0
2012-Sep-27 03:48N 76°40' W 092°03'0 0.0
2012-Sep-27 03:30N 76°40' W 092°03'0 0.0
2012-Sep-27 03:19N 76°40' W 092°03'0 0.1
2012-Sep-27 02:40N 76°40' W 092°03'0 7.4
2012-Sep-27 02:36N 76°40' W 092°02'0 4.9
2012-Sep-27 02:30N 76°40' W 092°03'0 3.7
2012-Sep-27 02:22N 76°40' W 092°02'0 0.3
2012-Sep-27 02:09N 76°40' W 092°02'1 1.6
2012-Sep-27 01:49N 76°40' W 092°01'0 0.0
2012-Sep-27 01:46N 76°40' W 092°01'0 0.0
2012-Sep-27 01:36N 76°40' W 092°01'0 0.5
2012-Sep-27 00:59N 76°40' W 092°02'0 1.3
2012-Sep-27 00:52N 76°40' W 092°02'0 8.0
2012-Sep-27 00:49N 76°40' W 092°03'0 0.0
2012-Sep-27 00:43N 76°40' W 092°03'1 2.7
2012-Sep-27 00:23N 76°39' W 092°07'0 0.0
2012-Sep-27 00:20N 76°39' W 092°07'0 0.0
2012-Sep-27 00:07N 76°39' W 092°07'117.5
2012-Sep-27 00:04N 76°40' W 092°03'0 0.0
2012-Sep-27 00:01N 76°40' W 092°03'0 0.0
2012-Sep-26 23:53N 76°40' W 092°03'0 0.0
2012-Sep-26 23:14N 76°40' W 092°03'1 6.1
2012-Sep-26 23:08N 76°40' W 092°01'0 0.0
2012-Sep-26 23:07N 76°40' W 092°01'0 0.0
2012-Sep-26 23:01N 76°40' W 092°01'0 0.0
2012-Sep-26 22:55N 76°40' W 092°01'0 0.0
2012-Sep-26 22:46N 76°40' W 092°01'0 0.0
2012-Sep-26 22:44N 76°40' W 092°01'0 6.3
2012-Sep-26 22:40N 76°40' W 092°02'0 0.0
2012-Sep-26 22:26N 76°40' W 092°02'0 0.0
2012-Sep-26 22:25N 76°40' W 092°02'0 0.0
2012-Sep-26 22:20N 76°40' W 092°02'0 1.9
2012-Sep-26 22:16N 76°40' W 092°03'0 0.4
2012-Sep-26 22:14N 76°40' W 092°03'0 2.6
2012-Sep-26 22:11N 76°40' W 092°02'0 0.2
2012-Sep-26 21:35N 76°40' W 092°02'1 3.8
2012-Sep-26 21:26N 76°40' W 092°03'0 9.4
2012-Sep-26 21:24N 76°40' W 092°04'0 0.0
2012-Sep-26 21:23N 76°40' W 092°04'0 0.0
2012-Sep-26 21:15N 76°40' W 092°04'0 0.0
2012-Sep-26 21:06N 76°40' W 092°04'1 5.9
2012-Sep-26 20:57N 76°40' W 092°01'0 0.0
2012-Sep-26 20:44N 76°40' W 092°01'0 3.9
2012-Sep-26 20:38N 76°40' W 092°02'0 2.9
2012-Sep-26 20:30N 76°40' W 092°01'023.5
2012-Sep-26 20:29N 76°40' W 092°02'0 0.3
2012-Sep-26 19:57N 76°40' W 092°02'0 0.6
2012-Sep-26 19:45N 76°40' W 092°02'0 0.0
2012-Sep-26 19:39N 76°40' W 092°02'0 1.8
2012-Sep-26 19:27N 76°40' W 092°03'0 0.0
2012-Sep-26 19:24N 76°40' W 092°03'1 1.5
2012-Sep-26 19:00N 76°40' W 092°01'0 0.0
2012-Sep-26 18:59N 76°40' W 092°01'1 7.3
2012-Sep-26 18:53N 76°41' W 092°04'0 0.0
2012-Sep-26 18:17N 76°41' W 092°04'112.9
2012-Sep-26 18:14N 76°40' W 092°02'0 0.0
2012-Sep-26 18:02N 76°40' W 092°02'0 0.0
2012-Sep-26 18:00N 76°40' W 092°02'0 3.7
2012-Sep-26 17:54N 76°40' W 092°02'0 2.4
2012-Sep-26 17:48N 76°40' W 092°03'0 2.4
2012-Sep-26 17:42N 76°40' W 092°02'0 0.0
2012-Sep-26 17:22N 76°40' W 092°02'0 1.1
2012-Sep-26 17:18N 76°40' W 092°02'0 2.3
2012-Sep-26 17:10N 76°40' W 092°04'0 0.0
2012-Sep-26 16:34N 76°40' W 092°04'0 1.4
2012-Sep-26 16:24N 76°40' W 092°03'0 2.4
2012-Sep-26 16:19N 76°40' W 092°02'0 2.6
2012-Sep-26 16:12N 76°40' W 092°02'0 0.0
2012-Sep-26 16:04N 76°40' W 092°02'1 1.7
2012-Sep-26 15:42N 76°40' W 092°02'0 7.3
2012-Sep-26 15:40N 76°41' W 092°02'1 4.3
2012-Sep-26 15:30N 76°40' W 092°04'0 0.0
2012-Sep-26 15:27N 76°40' W 092°04'0 0.8
2012-Sep-26 14:54N 76°40' W 092°02'0 1.6
2012-Sep-26 14:43N 76°40' W 092°03'0 0.0
2012-Sep-26 14:40N 76°40' W 092°03'0 0.0
2012-Sep-26 14:30N 76°40' W 092°03'0 5.9
2012-Sep-26 14:27N 76°40' W 092°02'0 0.7
2012-Sep-26 14:01N 76°40' W 092°03'0 0.0
2012-Sep-26 13:58N 76°40' W 092°03'0 0.0
2012-Sep-26 13:51N 76°40' W 092°03'0 0.2
2012-Sep-26 13:07N 76°40' W 092°03'0 6.9
2012-Sep-26 13:05N 76°40' W 092°02'0 0.0
2012-Sep-26 13:02N 76°40' W 092°02'0 0.0
2012-Sep-26 12:59N 76°40' W 092°02'0 0.0
2012-Sep-26 12:58N 76°40' W 092°02'0 1.6
2012-Sep-26 12:46N 76°40' W 092°03'0 0.0
2012-Sep-26 12:19N 76°40' W 092°03'0 0.4
2012-Sep-26 12:17N 76°40' W 092°03'1 2.4
2012-Sep-26 12:04N 76°40' W 092°01'0 0.6
2012-Sep-26 11:28N 76°40' W 092°03'0 4.0
2012-Sep-26 11:23N 76°40' W 092°01'0 6.7
2012-Sep-26 11:20N 76°40' W 092°03'0 0.9
2012-Sep-26 11:08N 76°40' W 092°02'1 1.1
2012-Sep-26 10:38N 76°40' W 092°04'0 0.7
2012-Sep-26 10:22N 76°40' W 092°04'0 0.0
2012-Sep-26 09:41N 76°40' W 092°04'0 1.6
2012-Sep-26 09:36N 76°40' W 092°03'1 5.7
2012-Sep-26 09:26N 76°41' W 091°60'1 1.9
2012-Sep-26 08:54N 76°40' W 092°04'0 0.9
2012-Sep-26 08:42N 76°40' W 092°03'0 0.0
2012-Sep-26 07:56N 76°40' W 092°03'0 8.5
2012-Sep-26 07:53N 76°40' W 092°03'0 0.0
2012-Sep-26 07:41N 76°40' W 092°03'1 1.4
2012-Sep-26 07:14N 76°40' W 092°02'1 2.2
2012-Sep-26 06:57N 76°40' W 092°03'1 0.9
2012-Sep-26 06:15N 76°40' W 092°02'113.3
2012-Sep-26 06:12N 76°40' W 092°02'0 0.0
2012-Sep-26 06:11N 76°40' W 092°02'0 0.0
2012-Sep-26 06:07N 76°40' W 092°02'0 0.0
2012-Sep-26 05:30N 76°40' W 092°02'0 0.0
2012-Sep-26 05:22N 76°40' W 092°02'1 1.0
2012-Sep-26 04:33N 76°41' W 092°02'111.4
2012-Sep-26 04:28N 76°40' W 091°58'120.1
2012-Sep-26 04:25N 76°40' W 092°03'0 0.0
2012-Sep-26 04:10N 76°40' W 092°03'0 0.0
2012-Sep-26 03:39N 76°40' W 092°03'0 0.0
2012-Sep-26 03:37N 76°40' W 092°03'1 0.8
2012-Sep-26 02:52N 76°40' W 092°05'029.3
2012-Sep-26 02:51N 76°40' W 092°03'0 9.8
2012-Sep-26 02:48N 76°40' W 092°05'112.7
2012-Sep-26 02:45N 76°40' W 092°04'1 7.6
2012-Sep-26 02:40N 76°40' W 092°05'1 2.9
2012-Sep-26 02:27N 76°40' W 092°04'1 2.0
2012-Sep-26 02:01N 76°40' W 092°00'126.6
2012-Sep-26 01:59N 76°40' W 092°04'0 0.0
2012-Sep-26 01:56N 76°40' W 092°04'1 1.3
2012-Sep-26 01:05N 76°40' W 091°59'021.2
2012-Sep-26 01:04N 76°40' W 092°00'0 7.1
2012-Sep-26 01:01N 76°40' W 091°59'0 0.0
2012-Sep-26 00:58N 76°40' W 091°59'0 0.0
2012-Sep-26 00:53N 76°40' W 091°59'0 7.8
2012-Sep-26 00:50N 76°40' W 092°01'0 0.0
2012-Sep-26 00:19N 76°40' W 092°01'0 0.0
2012-Sep-26 00:17N 76°40' W 092°01'0 0.0
2012-Sep-26 00:14N 76°40' W 092°01'130.6
2012-Sep-26 00:13N 76°40' W 092°02'0 0.0
2012-Sep-26 00:11N 76°40' W 092°02'0 0.0
2012-Sep-25 23:28N 76°40' W 092°02'0 0.0
2012-Sep-25 23:26N 76°40' W 092°02'216.0
2012-Sep-25 23:20N 76°41' W 092°03'0 0.0
2012-Sep-25 23:19N 76°41' W 092°03'0 0.0
2012-Sep-25 23:17N 76°41' W 092°03'224.2
2012-Sep-25 23:13N 76°40' W 092°00'0 2.4
2012-Sep-25 23:08N 76°40' W 091°59'0 4.1
2012-Sep-25 23:05N 76°40' W 092°00'0 0.0
2012-Sep-25 22:35N 76°40' W 092°00'0 8.0
2012-Sep-25 22:32N 76°40' W 091°59'0 7.3
2012-Sep-25 22:28N 76°40' W 092°00'0 0.0
2012-Sep-25 21:50N 76°40' W 092°00'0 0.2
2012-Sep-25 21:45N 76°40' W 092°01'0 2.1
2012-Sep-25 21:41N 76°40' W 092°00'1 7.5
2012-Sep-25 21:36N 76°39' W 091°58'0 0.0
2012-Sep-25 21:30N 76°39' W 091°58'115.9
2012-Sep-25 21:27N 76°40' W 092°00'0 1.0
2012-Sep-25 21:21N 76°40' W 091°60'0 0.1
2012-Sep-25 20:51N 76°40' W 092°00'0 1.1
2012-Sep-25 20:48N 76°40' W 091°60'0 0.4
2012-Sep-25 20:09N 76°40' W 092°01'0 9.0
2012-Sep-25 20:06N 76°40' W 091°59'0 0.8
2012-Sep-25 19:53N 76°40' W 091°60'0 0.0
2012-Sep-25 19:50N 76°40' W 091°60'0 0.2
2012-Sep-25 19:14N 76°40' W 091°59'0 0.0
2012-Sep-25 19:11N 76°40' W 091°59'0 1.2
2012-Sep-25 19:09N 76°40' W 091°60'0 1.4
2012-Sep-25 19:03N 76°40' W 092°00'0 0.2
2012-Sep-25 18:15N 76°40' W 091°60'0 1.5
2012-Sep-25 18:10N 76°40' W 092°00'0 2.3
2012-Sep-25 18:04N 76°40' W 091°60'0 0.0
2012-Sep-25 17:33N 76°40' W 091°60'0 0.0
2012-Sep-25 17:31N 76°40' W 091°60'0 4.1
2012-Sep-25 17:28N 76°40' W 092°00'0 0.0
2012-Sep-25 17:19N 76°40' W 092°00'0 0.0
2012-Sep-25 16:52N 76°40' W 092°00'0 1.5
2012-Sep-25 16:46N 76°40' W 092°01'1 2.7
2012-Sep-25 16:34N 76°40' W 091°59'0 6.5
2012-Sep-25 16:31N 76°40' W 092°00'0 0.0
2012-Sep-25 16:30N 76°40' W 092°00'0 0.0
2012-Sep-25 16:22N 76°40' W 092°00'0 0.9
2012-Sep-25 15:58N 76°40' W 092°01'0 0.0
2012-Sep-25 15:54N 76°40' W 092°01'010.8
2012-Sep-25 15:52N 76°40' W 092°00'0 0.8
2012-Sep-25 15:51N 76°40' W 092°00'0 1.3
2012-Sep-25 15:40N 76°40' W 092°01'0 0.0
2012-Sep-25 15:12N 76°40' W 092°01'0 4.0
2012-Sep-25 15:07N 76°40' W 092°02'0 1.6
2012-Sep-25 14:54N 76°40' W 092°01'0 0.3
2012-Sep-25 14:51N 76°40' W 092°01'0 0.0
2012-Sep-25 14:42N 76°40' W 092°01'0 0.2
2012-Sep-25 14:17N 76°40' W 092°01'0 4.0
2012-Sep-25 14:14N 76°40' W 092°01'0 2.4
2012-Sep-25 14:11N 76°40' W 092°01'0 0.0
2012-Sep-25 14:08N 76°40' W 092°01'0 0.0
2012-Sep-25 14:07N 76°40' W 092°01'0 0.6
2012-Sep-25 13:31N 76°40' W 092°02'1 5.4
2012-Sep-25 13:22N 76°39' W 092°05'1 8.4
2012-Sep-25 13:14N 76°40' W 092°01'0 0.0
2012-Sep-25 13:11N 76°40' W 092°01'0 0.0
2012-Sep-25 13:10N 76°40' W 092°01'0 0.0
2012-Sep-25 13:08N 76°40' W 092°01'0 0.6
2012-Sep-25 12:32N 76°40' W 091°60'0 0.0
2012-Sep-25 12:23N 76°40' W 091°60'0 0.6
2012-Sep-25 11:43N 76°40' W 092°01'112.3
2012-Sep-25 11:38N 76°39' W 091°58'0 0.0
2012-Sep-25 11:34N 76°39' W 091°58'0 0.0
2012-Sep-25 11:32N 76°39' W 091°58'1 5.2
2012-Sep-25 11:20N 76°40' W 092°01'0 0.0
2012-Sep-25 10:45N 76°40' W 092°01'0 2.0
2012-Sep-25 10:38N 76°40' W 092°02'0 0.0
2012-Sep-25 10:05N 76°40' W 092°02'1 2.4
2012-Sep-25 09:47N 76°40' W 092°04'1 6.7
2012-Sep-25 09:39N 76°40' W 092°00'0 0.0
2012-Sep-25 09:08N 76°40' W 092°00'0 1.2
2012-Sep-25 09:05N 76°40' W 092°00'1 0.9
2012-Sep-25 08:21N 76°40' W 092°03'0 0.0
2012-Sep-25 08:09N 76°40' W 092°03'0 0.0
2012-Sep-25 08:08N 76°40' W 092°03'1 1.5
2012-Sep-25 07:26N 76°40' W 091°58'1 0.6
2012-Sep-25 06:25N 76°40' W 092°01'140.3
2012-Sep-25 06:24N 76°40' W 091°58'1 0.9
2012-Sep-25 05:40N 76°40' W 092°01'140.8
2012-Sep-25 05:39N 76°40' W 091°58'1 0.7
2012-Sep-25 04:43N 76°40' W 092°01'0 8.9
2012-Sep-25 04:40N 76°40' W 091°59'0 0.3
2012-Sep-25 03:55N 76°40' W 092°00'0 0.0
2012-Sep-25 03:10N 76°40' W 092°00'0 0.0
2012-Sep-25 03:01N 76°40' W 092°00'1 6.9
2012-Sep-25 02:55N 76°39' W 091°59'1 1.1
2012-Sep-25 02:22N 76°40' W 092°01'0 0.6
2012-Sep-25 02:19N 76°40' W 092°01'0 0.6
2012-Sep-25 02:07N 76°40' W 092°01'0 0.0
2012-Sep-25 01:31N 76°40' W 092°01'1 3.2
2012-Sep-25 01:19N 76°40' W 091°59'1 8.4
2012-Sep-25 01:13N 76°40' W 092°02'0 0.0
2012-Sep-25 01:10N 76°40' W 092°02'0 0.4
2012-Sep-25 00:40N 76°40' W 092°02'0 2.2
2012-Sep-25 00:35N 76°40' W 092°02'0 3.9
2012-Sep-25 00:29N 76°40' W 092°00'0 0.0
2012-Sep-25 00:26N 76°40' W 092°00'0 0.0
2012-Sep-25 00:22N 76°40' W 092°00'0 0.0
2012-Sep-24 23:50N 76°40' W 092°00'0 2.2
2012-Sep-24 23:41N 76°40' W 091°60'0 0.0
2012-Sep-24 23:38N 76°40' W 091°60'0 0.0
2012-Sep-24 23:32N 76°40' W 091°60'0 0.0
2012-Sep-24 23:29N 76°40' W 091°60'0 0.0
2012-Sep-24 23:27N 76°40' W 091°60'0 0.5
2012-Sep-24 22:59N 76°40' W 091°60'0 2.4
2012-Sep-24 22:53N 76°40' W 091°60'0 0.0
2012-Sep-24 22:45N 76°40' W 091°60'113.8
2012-Sep-24 22:42N 76°40' W 092°02'0 0.0
2012-Sep-24 22:12N 76°40' W 092°02'0 0.0
2012-Sep-24 22:08N 76°40' W 092°02'1 8.7
2012-Sep-24 22:03N 76°40' W 091°59'0 0.0
2012-Sep-24 22:02N 76°40' W 091°59'0 0.0
2012-Sep-24 21:59N 76°40' W 091°59'0 3.0
2012-Sep-24 21:50N 76°40' W 092°01'0 0.0
2012-Sep-24 21:47N 76°40' W 092°01'0 0.0
2012-Sep-24 21:44N 76°40' W 092°01'0 1.1
2012-Sep-24 21:18N 76°40' W 092°01'0 9.9
2012-Sep-24 21:15N 76°40' W 092°01'0 0.0
2012-Sep-24 21:05N 76°40' W 092°01'0 1.6
2012-Sep-24 21:02N 76°40' W 092°01'1 0.8
2012-Sep-24 20:21N 76°40' W 092°00'0 1.4
2012-Sep-24 20:15N 76°40' W 091°60'0 4.5
2012-Sep-24 20:09N 76°40' W 091°59'0 0.0
2012-Sep-24 20:06N 76°40' W 091°59'0 0.4
2012-Sep-24 20:04N 76°40' W 091°59'0 0.0
2012-Sep-24 20:03N 76°40' W 091°59'0 0.6
2012-Sep-24 19:30N 76°40' W 092°01'0 0.0
2012-Sep-24 19:22N 76°40' W 092°01'0 1.6
2012-Sep-24 19:19N 76°40' W 092°00'0 5.6
2012-Sep-24 19:15N 76°39' W 091°60'0 0.0
2012-Sep-24 18:54N 76°39' W 091°60'010.9
2012-Sep-24 18:52N 76°40' W 092°00'0 0.0
2012-Sep-24 18:40N 76°40' W 092°00'0 1.1
2012-Sep-24 18:37N 76°40' W 092°00'0 0.0
2012-Sep-24 18:36N 76°40' W 092°00'0 2.4
2012-Sep-24 18:28N 76°40' W 091°59'0 0.0
2012-Sep-24 18:25N 76°40' W 091°59'0 0.8
2012-Sep-24 18:22N 76°40' W 091°59'0 3.9
2012-Sep-24 18:15N 76°40' W 092°01'0 0.0
2012-Sep-24 17:42N 76°40' W 092°01'0 0.0
2012-Sep-24 17:40N 76°40' W 092°01'1 7.3
2012-Sep-24 17:34N 76°40' W 092°00'0 0.0
2012-Sep-24 17:15N 76°40' W 092°00'310.8
2012-Sep-24 17:01N 76°38' W 092°01'0 0.0
2012-Sep-24 16:57N 76°38' W 092°01'0 0.0
2012-Sep-24 16:48N 76°38' W 092°01'0 0.0
2012-Sep-24 16:44N 76°38' W 092°01'0 0.0
2012-Sep-24 16:43N 76°38' W 092°01'0 0.0
2012-Sep-24 16:41N 76°38' W 092°01'0 0.0
2012-Sep-24 16:40N 76°38' W 092°01'0 0.0
2012-Sep-24 16:35N 76°38' W 092°01'0 0.0
2012-Sep-24 16:10N 76°38' W 092°01'0 0.0
2012-Sep-24 16:02N 76°38' W 092°01'0 0.0
2012-Sep-24 16:01N 76°38' W 092°01'316.1
2012-Sep-24 15:50N 76°41' W 092°04'1 2.3
2012-Sep-24 15:19N 76°40' W 092°01'0 0.0
2012-Sep-24 15:04N 76°40' W 092°01'125.4
2012-Sep-24 15:01N 76°40' W 092°06'0 0.0
2012-Sep-24 14:29N 76°40' W 092°06'0 0.0
2012-Sep-24 14:22N 76°40' W 092°06'0 0.0
2012-Sep-24 14:19N 76°40' W 092°06'0 0.0
2012-Sep-24 14:10N 76°40' W 092°06'0 0.0
2012-Sep-24 13:55N 76°40' W 092°06'1 3.0
2012-Sep-24 13:35N 76°40' W 092°02'0 0.0
2012-Sep-24 13:34N 76°40' W 092°02'1 3.4
2012-Sep-24 13:23N 76°39' W 092°00'0 4.0
2012-Sep-24 13:20N 76°40' W 092°01'1 5.2
2012-Sep-24 13:11N 76°40' W 091°59'1 3.1
2012-Sep-24 12:54N 76°39' W 092°00'0 0.0
2012-Sep-24 12:53N 76°39' W 092°00'1 3.1
2012-Sep-24 12:36N 76°40' W 091°59'0 0.0
2012-Sep-24 12:12N 76°40' W 091°59'0 0.0
2012-Sep-24 11:57N 76°40' W 091°59'1 9.1
2012-Sep-24 11:53N 76°40' W 091°60'0 0.0
2012-Sep-24 11:38N 76°40' W 091°60'0 0.8
2012-Sep-24 11:08N 76°40' W 091°59'1 5.2
2012-Sep-24 10:59N 76°39' W 091°56'1 3.9
2012-Sep-24 10:50N 76°40' W 091°58'0 0.1
2012-Sep-24 10:27N 76°40' W 091°58'0 0.0
2012-Sep-24 10:16N 76°40' W 091°58'1 2.7
2012-Sep-24 10:00N 76°40' W 092°01'1 1.2
2012-Sep-24 09:21N 76°40' W 091°58'0 0.0
2012-Sep-24 09:19N 76°40' W 091°58'0 0.8
2012-Sep-24 08:42N 76°40' W 091°59'0 0.0
2012-Sep-24 08:33N 76°40' W 091°59'0 0.0
2012-Sep-24 08:19N 76°40' W 091°59'0 0.5
2012-Sep-24 07:42N 76°40' W 091°58'0 0.0
2012-Sep-24 07:34N 76°40' W 091°58'0 0.1
2012-Sep-24 06:58N 76°40' W 091°58'0 0.0
2012-Sep-24 06:56N 76°40' W 091°58'0 0.0
2012-Sep-24 06:50N 76°40' W 091°58'1 1.1
2012-Sep-24 05:52N 76°40' W 092°03'0 0.0
2012-Sep-24 05:20N 76°40' W 092°03'1 4.8
2012-Sep-24 05:13N 76°40' W 092°01'0 0.0
2012-Sep-24 04:56N 76°40' W 092°01'0 0.9
2012-Sep-24 04:52N 76°40' W 092°01'0 0.0
2012-Sep-24 04:23N 76°40' W 092°01'0 0.9
2012-Sep-24 04:02N 76°40' W 092°02'0 0.0
2012-Sep-24 03:38N 76°40' W 092°02'0 2.3
2012-Sep-24 03:33N 76°40' W 092°01'0 0.0
2012-Sep-24 03:21N 76°40' W 092°01'0 0.0
2012-Sep-24 03:17N 76°40' W 092°01'0 2.5
2012-Sep-24 03:09N 76°40' W 092°02'0 0.0
2012-Sep-24 02:41N 76°40' W 092°02'1 1.4
2012-Sep-24 02:17N 76°40' W 091°60'0 0.0
2012-Sep-24 01:57N 76°40' W 091°60'0 1.2
2012-Sep-24 01:51N 76°40' W 091°60'0 2.4
2012-Sep-24 01:48N 76°40' W 091°60'0 0.3
2012-Sep-24 01:32N 76°40' W 091°60'0 0.5
2012-Sep-24 01:24N 76°40' W 091°60'1 1.4
2012-Sep-24 00:59N 76°40' W 092°01'0 0.0
2012-Sep-24 00:57N 76°40' W 092°01'0 0.0
2012-Sep-24 00:41N 76°40' W 092°01'1 5.8
2012-Sep-24 00:33N 76°40' W 091°58'0 0.0
2012-Sep-24 00:14N 76°40' W 091°58'1 2.4
2012-Sep-24 00:00N 76°40' W 092°00'0 5.1
2012-Sep-23 23:55N 76°40' W 092°01'0 0.0
2012-Sep-23 23:49N 76°40' W 092°01'0 0.0
2012-Sep-23 23:45N 76°40' W 092°01'0 0.0
2012-Sep-23 23:37N 76°40' W 092°01'0 0.0
2012-Sep-23 23:15N 76°40' W 092°01'1 2.1
2012-Sep-23 22:57N 76°40' W 091°59'0 0.0
2012-Sep-23 22:54N 76°40' W 091°59'0 0.0
2012-Sep-23 22:34N 76°40' W 091°59'0 0.0
2012-Sep-23 22:31N 76°40' W 091°59'0 0.0
2012-Sep-23 22:15N 76°40' W 091°59'0 0.0
2012-Sep-23 22:13N 76°40' W 091°59'0 1.2
2012-Sep-23 22:10N 76°40' W 091°59'0 2.8
2012-Sep-23 22:01N 76°40' W 091°59'0 0.0
2012-Sep-23 22:00N 76°40' W 091°59'0 0.0
2012-Sep-23 21:58N 76°40' W 091°59'0 2.3
2012-Sep-23 21:52N 76°40' W 091°60'0 0.3
2012-Sep-23 21:37N 76°40' W 091°60'011.6
2012-Sep-23 21:36N 76°40' W 092°00'0 3.1
2012-Sep-23 21:33N 76°40' W 091°60'0 0.2
2012-Sep-23 21:18N 76°40' W 091°60'0 0.4
2012-Sep-23 20:58N 76°40' W 092°00'0 4.0
2012-Sep-23 20:55N 76°40' W 091°60'0 2.4
2012-Sep-23 20:46N 76°40' W 091°60'0 0.0
2012-Sep-23 20:33N 76°40' W 091°60'0 0.0
2012-Sep-23 20:31N 76°40' W 091°60'0 0.0
2012-Sep-23 20:30N 76°40' W 091°60'0 3.2
2012-Sep-23 20:22N 76°40' W 091°60'0 0.0
2012-Sep-23 20:18N 76°40' W 091°60'0 1.4
2012-Sep-23 20:13N 76°40' W 092°00'0 1.7
2012-Sep-23 19:59N 76°40' W 091°59'0 4.0
2012-Sep-23 19:53N 76°40' W 091°60'0 6.8
2012-Sep-23 19:52N 76°40' W 092°00'0 0.0
2012-Sep-23 19:35N 76°40' W 092°00'0 0.0
2012-Sep-23 19:32N 76°40' W 092°00'0 4.2
2012-Sep-23 19:31N 76°40' W 091°60'0 0.7
2012-Sep-23 19:25N 76°40' W 092°00'0 0.0
2012-Sep-23 19:23N 76°40' W 092°00'0 0.0
2012-Sep-23 18:58N 76°40' W 092°00'0 2.3
2012-Sep-23 18:52N 76°40' W 091°60'0 1.8
2012-Sep-23 18:50N 76°40' W 091°60'0 2.4
2012-Sep-23 18:41N 76°40' W 092°00'0 0.0
2012-Sep-23 18:35N 76°40' W 092°00'0 3.6
2012-Sep-23 18:32N 76°40' W 091°60'0 0.9
2012-Sep-23 18:20N 76°40' W 092°00'0 0.0
2012-Sep-23 18:13N 76°40' W 092°00'0 0.5
2012-Sep-23 17:53N 76°40' W 091°60'0 0.0
2012-Sep-23 17:43N 76°40' W 091°60'0 0.0
2012-Sep-23 17:29N 76°40' W 091°60'0 0.0
2012-Sep-23 17:20N 76°40' W 091°60'0 0.0
2012-Sep-23 17:17N 76°40' W 091°60'111.9
2012-Sep-23 17:11N 76°41' W 092°04'1 4.2
2012-Sep-23 16:55N 76°40' W 092°00'0 0.0
2012-Sep-23 16:52N 76°40' W 092°00'0 0.0
2012-Sep-23 16:44N 76°40' W 092°00'0 2.7
2012-Sep-23 16:40N 76°40' W 092°00'0 1.4
2012-Sep-23 16:32N 76°40' W 092°00'0 0.0
2012-Sep-23 16:14N 76°40' W 092°00'0 4.8
2012-Sep-23 16:11N 76°40' W 091°60'0 0.0
2012-Sep-23 16:02N 76°40' W 091°60'0 0.0
2012-Sep-23 15:41N 76°40' W 091°60'1 2.1
2012-Sep-23 15:26N 76°40' W 092°02'1 2.8
2012-Sep-23 15:15N 76°40' W 092°01'0 5.8
2012-Sep-23 15:11N 76°39' W 091°60'0 0.0
2012-Sep-23 15:02N 76°39' W 091°60'0 6.1
2012-Sep-23 14:59N 76°40' W 091°60'0 1.7
2012-Sep-23 14:48N 76°39' W 091°60'0 0.0
2012-Sep-23 14:33N 76°39' W 091°60'0 0.0
2012-Sep-23 14:27N 76°39' W 091°60'1 4.6
2012-Sep-23 14:18N 76°40' W 092°00'0 1.2
2012-Sep-23 14:00N 76°40' W 092°02'0 0.0
2012-Sep-23 13:47N 76°40' W 092°02'0 1.0
2012-Sep-23 13:29N 76°40' W 092°00'1 7.9
2012-Sep-23 13:23N 76°39' W 091°57'1 6.5
2012-Sep-23 13:17N 76°39' W 092°00'0 8.4
2012-Sep-23 13:14N 76°40' W 092°00'1 7.9
2012-Sep-23 13:08N 76°39' W 091°57'0 0.6
2012-Sep-23 12:51N 76°39' W 091°58'1 2.7
2012-Sep-23 12:38N 76°40' W 091°60'0 0.0
2012-Sep-23 12:21N 76°40' W 091°60'0 2.0
2012-Sep-23 12:10N 76°40' W 091°59'0 0.0
2012-Sep-23 12:04N 76°40' W 091°59'0 2.1
2012-Sep-23 11:51N 76°40' W 091°59'0 0.0
2012-Sep-23 11:49N 76°40' W 091°59'0 1.1
2012-Sep-23 11:28N 76°40' W 092°00'0 0.0
2012-Sep-23 11:12N 76°40' W 092°00'0 1.3
2012-Sep-23 10:55N 76°40' W 092°01'0 0.6
2012-Sep-23 10:40N 76°40' W 092°00'1 1.8
2012-Sep-23 10:13N 76°41' W 092°02'0 0.0
2012-Sep-23 10:12N 76°41' W 092°02'1 2.1
2012-Sep-23 09:48N 76°40' W 091°59'0 0.0
2012-Sep-23 09:30N 76°40' W 091°59'0 1.2
2012-Sep-23 09:07N 76°40' W 092°01'0 0.0
2012-Sep-23 09:00N 76°40' W 092°01'0 4.7
2012-Sep-23 08:54N 76°40' W 091°59'0 0.0
2012-Sep-23 08:31N 76°40' W 091°59'0 1.2
2012-Sep-23 08:05N 76°40' W 092°01'1 2.7
2012-Sep-23 07:47N 76°40' W 091°59'010.8
2012-Sep-23 07:46N 76°40' W 091°59'1 2.2
2012-Sep-23 07:26N 76°40' W 092°01'1 1.2
2012-Sep-23 06:49N 76°40' W 091°58'0 0.3
2012-Sep-23 05:08N 76°40' W 092°00'0 0.0
2012-Sep-23 05:07N 76°40' W 092°00'119.8
2012-Sep-23 05:05N 76°40' W 091°59'0 0.0
2012-Sep-23 04:41N 76°40' W 091°59'0 0.6
2012-Sep-23 04:14N 76°40' W 091°58'0 0.0
2012-Sep-23 04:02N 76°40' W 091°58'0 3.4
2012-Sep-23 03:57N 76°40' W 091°59'0 0.0
2012-Sep-23 03:44N 76°40' W 091°59'1 3.0
2012-Sep-23 03:23N 76°40' W 092°03'1 7.7
2012-Sep-23 03:15N 76°40' W 091°59'0 0.4
2012-Sep-23 03:02N 76°40' W 091°60'0 0.4
2012-Sep-23 02:35N 76°40' W 091°60'0 0.0
2012-Sep-23 02:23N 76°40' W 091°60'0 2.8
2012-Sep-23 02:18N 76°40' W 091°59'0 0.0
2012-Sep-23 02:02N 76°40' W 091°59'0 0.0
2012-Sep-23 01:45N 76°40' W 091°59'114.7
2012-Sep-23 01:41N 76°39' W 092°03'0 0.0
2012-Sep-23 01:35N 76°39' W 092°03'0 0.0
2012-Sep-23 01:30N 76°39' W 092°03'0 0.0
2012-Sep-23 01:23N 76°39' W 092°03'0 0.0
2012-Sep-23 01:21N 76°39' W 092°03'0 0.0
2012-Sep-23 01:18N 76°39' W 092°03'1 2.2
2012-Sep-23 00:51N 76°40' W 091°59'0 4.5
2012-Sep-23 00:46N 76°40' W 091°60'0 0.0
2012-Sep-23 00:25N 76°40' W 091°60'0 3.7
2012-Sep-23 00:24N 76°40' W 091°60'0 4.2
2012-Sep-23 00:18N 76°40' W 091°58'0 1.8
2012-Sep-23 00:06N 76°40' W 091°60'0 0.0
2012-Sep-23 00:03N 76°40' W 091°60'0 0.0
2012-Sep-22 23:57N 76°40' W 091°60'0 4.2
2012-Sep-22 23:52N 76°40' W 091°58'021.2
2012-Sep-22 23:51N 76°40' W 091°60'0 0.0
2012-Sep-22 23:49N 76°40' W 091°60'0 3.0
2012-Sep-22 23:42N 76°40' W 091°58'0 7.1
2012-Sep-22 23:39N 76°40' W 091°60'0 0.0
2012-Sep-22 23:36N 76°40' W 091°60'0 0.1
2012-Sep-22 23:07N 76°40' W 092°00'0 0.0
2012-Sep-22 22:51N 76°40' W 092°00'0 0.0
2012-Sep-22 22:43N 76°40' W 092°00'113.0
2012-Sep-22 22:40N 76°40' W 091°58'0 0.0
2012-Sep-22 22:37N 76°40' W 091°58'0 0.0
2012-Sep-22 22:25N 76°40' W 091°58'0 0.0
2012-Sep-22 22:22N 76°40' W 091°58'1 5.3
2012-Sep-22 22:15N 76°40' W 091°60'0 0.0
2012-Sep-22 22:10N 76°40' W 091°60'0 3.7
2012-Sep-22 22:09N 76°40' W 091°60'0 7.8
2012-Sep-22 22:06N 76°40' W 092°01'0 4.9
2012-Sep-22 22:01N 76°40' W 091°60'015.0
2012-Sep-22 22:00N 76°40' W 091°60'0 0.0
2012-Sep-22 21:57N 76°40' W 091°60'0 9.0
2012-Sep-22 21:54N 76°40' W 092°01'0 0.0
2012-Sep-22 21:28N 76°40' W 092°01'0 2.0
2012-Sep-22 21:23N 76°40' W 092°01'1 2.3
2012-Sep-22 21:02N 76°40' W 091°59'0 0.0
2012-Sep-22 20:55N 76°40' W 091°59'0 0.0
2012-Sep-22 20:44N 76°40' W 091°59'0 3.0
2012-Sep-22 20:34N 76°40' W 092°00'0 0.0
2012-Sep-22 20:28N 76°40' W 092°00'0 1.5
2012-Sep-22 20:25N 76°40' W 092°00'0 0.3
2012-Sep-22 20:20N 76°40' W 092°00'0 0.2
2012-Sep-22 20:13N 76°40' W 092°00'0 0.0
2012-Sep-22 19:47N 76°40' W 092°00'0 0.0
2012-Sep-22 19:43N 76°40' W 092°00'0 6.2
2012-Sep-22 19:40N 76°40' W 091°59'0 0.0
2012-Sep-22 19:37N 76°40' W 091°59'0 0.0
2012-Sep-22 19:25N 76°40' W 091°59'0 0.0
2012-Sep-22 19:23N 76°40' W 091°59'0 0.0
2012-Sep-22 19:22N 76°40' W 091°59'0 1.6
2012-Sep-22 19:13N 76°40' W 091°60'0 0.0
2012-Sep-22 19:04N 76°40' W 091°60'0 0.0
2012-Sep-22 19:01N 76°40' W 091°60'0 3.0
2012-Sep-22 18:55N 76°40' W 092°01'0 0.0
2012-Sep-22 18:47N 76°40' W 092°01'0 0.0
2012-Sep-22 18:44N 76°40' W 092°01'0 2.5
2012-Sep-22 18:43N 76°40' W 092°01'0 1.1
2012-Sep-22 18:37N 76°40' W 092°00'0 4.5
2012-Sep-22 18:35N 76°40' W 092°01'0 3.0
2012-Sep-22 18:32N 76°40' W 092°00'0 0.0
2012-Sep-22 18:05N 76°40' W 092°00'0 0.0
2012-Sep-22 18:02N 76°40' W 092°00'0 0.0
2012-Sep-22 17:56N 76°40' W 092°00'0 0.0
2012-Sep-22 17:45N 76°40' W 092°00'0 2.3
2012-Sep-22 17:38N 76°40' W 092°01'0 0.0
2012-Sep-22 17:23N 76°40' W 092°01'0 0.0
2012-Sep-22 17:05N 76°40' W 092°01'0 0.0
2012-Sep-22 17:02N 76°40' W 092°01'0 0.0
2012-Sep-22 16:56N 76°40' W 092°01'0 0.0
2012-Sep-22 16:51N 76°40' W 092°01'0 0.0
2012-Sep-22 16:24N 76°40' W 092°01'110.7
2012-Sep-22 16:21N 76°40' W 092°02'0 0.0
2012-Sep-22 16:20N 76°40' W 092°02'0 0.0
2012-Sep-22 15:59N 76°40' W 092°02'0 0.0
2012-Sep-22 15:41N 76°40' W 092°02'0 1.1
2012-Sep-22 15:20N 76°40' W 092°01'0 0.0
2012-Sep-22 15:14N 76°40' W 092°01'0 0.5
2012-Sep-22 14:44N 76°40' W 091°60'0 0.0
2012-Sep-22 14:41N 76°40' W 091°60'1 1.9
2012-Sep-22 14:24N 76°40' W 092°01'0 0.0
2012-Sep-22 14:21N 76°40' W 092°01'0 0.5
2012-Sep-22 14:00N 76°40' W 092°00'0 0.8
2012-Sep-22 13:45N 76°40' W 092°00'0 0.0
2012-Sep-22 13:40N 76°40' W 092°00'0 0.0
2012-Sep-22 13:36N 76°40' W 092°00'0 5.1
2012-Sep-22 13:33N 76°40' W 091°59'0 0.0
2012-Sep-22 13:31N 76°40' W 091°59'0 0.0
2012-Sep-22 13:03N 76°40' W 091°59'0 0.4
2012-Sep-22 13:01N 76°40' W 091°59'0 0.0
2012-Sep-22 13:00N 76°40' W 091°59'1 4.9
2012-Sep-22 12:52N 76°40' W 092°01'0 0.0
2012-Sep-22 12:46N 76°40' W 092°01'1 1.2
2012-Sep-22 12:15N 76°40' W 091°59'0 0.0
2012-Sep-22 12:03N 76°40' W 091°59'0 0.6
2012-Sep-22 11:46N 76°40' W 091°59'0 0.0
2012-Sep-22 11:22N 76°40' W 091°59'027.3
2012-Sep-22 11:21N 76°40' W 092°01'013.7
2012-Sep-22 11:19N 76°40' W 091°59'0 2.1
2012-Sep-22 11:06N 76°40' W 092°01'0 8.0
2012-Sep-22 11:03N 76°40' W 091°59'0 0.0
2012-Sep-22 10:23N 76°40' W 091°59'0 0.0
2012-Sep-22 10:22N 76°40' W 091°59'0 1.3
2012-Sep-22 10:19N 76°40' W 091°59'0 0.0
2012-Sep-22 10:08N 76°40' W 091°59'0 0.0
2012-Sep-22 09:41N 76°40' W 091°59'0 1.7
2012-Sep-22 09:29N 76°40' W 092°00'0 0.0
2012-Sep-22 09:25N 76°40' W 092°00'1 5.1
2012-Sep-22 09:19N 76°40' W 091°59'0 0.0
2012-Sep-22 08:47N 76°40' W 091°59'0 6.7
2012-Sep-22 08:43N 76°40' W 092°01'013.4
2012-Sep-22 08:41N 76°40' W 091°59'0 1.8
2012-Sep-22 08:26N 76°40' W 092°01'0 0.0
2012-Sep-22 07:58N 76°40' W 092°01'0 0.3
2012-Sep-22 07:41N 76°40' W 092°00'0 0.0
2012-Sep-22 06:59N 76°40' W 092°00'0 1.9
2012-Sep-22 06:45N 76°40' W 091°59'0 0.0
2012-Sep-22 06:06N 76°40' W 091°59'0 0.0
2012-Sep-22 05:23N 76°40' W 091°59'0 5.8
2012-Sep-22 05:21N 76°40' W 091°60'0 2.6
2012-Sep-22 05:17N 76°40' W 092°00'0 0.0
2012-Sep-22 05:03N 76°40' W 092°00'0 0.7
2012-Sep-22 04:26N 76°40' W 091°59'0 0.0
2012-Sep-22 04:21N 76°40' W 091°59'0 0.0
2012-Sep-22 04:09N 76°40' W 091°59'0 0.0
2012-Sep-22 03:41N 76°40' W 091°59'0 1.8
2012-Sep-22 03:35N 76°40' W 091°59'0 0.0
2012-Sep-22 03:27N 76°40' W 091°59'0 0.0
2012-Sep-22 03:22N 76°40' W 091°59'0 0.1
2012-Sep-22 02:46N 76°40' W 091°59'0 2.4
2012-Sep-22 02:43N 76°40' W 091°59'0 0.0
2012-Sep-22 02:40N 76°40' W 091°59'0 0.0
2012-Sep-22 02:00N 76°40' W 091°59'0 0.0
2012-Sep-22 01:55N 76°40' W 091°59'1 5.0
2012-Sep-22 01:49N 76°40' W 091°58'0 0.0
2012-Sep-22 01:43N 76°40' W 091°58'117.9
2012-Sep-22 01:40N 76°40' W 091°60'153.8
2012-Sep-22 01:39N 76°40' W 091°58'1 1.5
2012-Sep-22 01:03N 76°40' W 091°60'1 3.3
2012-Sep-22 00:49N 76°40' W 091°60'115.2
2012-Sep-22 00:46N 76°40' W 092°01'0 0.0
2012-Sep-22 00:45N 76°40' W 092°01'0 0.0
2012-Sep-22 00:19N 76°40' W 092°01'0 5.0
2012-Sep-22 00:15N 76°40' W 091°60'0 2.8
2012-Sep-22 00:09N 76°40' W 092°00'0 0.0
2012-Sep-22 00:01N 76°40' W 092°00'0 0.0
2012-Sep-21 23:57N 76°40' W 092°00'0 0.5
2012-Sep-21 23:20N 76°40' W 092°00'0 6.1
2012-Sep-21 23:16N 76°40' W 091°59'0 0.0
2012-Sep-21 23:14N 76°40' W 091°59'0 0.0
2012-Sep-21 23:10N 76°40' W 091°59'0 0.4
2012-Sep-21 23:01N 76°40' W 091°59'0 0.0
2012-Sep-21 22:35N 76°40' W 091°59'0 0.0
2012-Sep-21 22:34N 76°40' W 091°59'1 5.2
2012-Sep-21 22:26N 76°40' W 092°01'0 0.0
2012-Sep-21 22:22N 76°40' W 092°01'0 0.0
2012-Sep-21 22:20N 76°40' W 092°01'011.1
2012-Sep-21 22:19N 76°40' W 092°00'0 5.9
2012-Sep-21 22:16N 76°40' W 092°01'0 5.9
2012-Sep-21 22:13N 76°40' W 092°00'0 0.5
2012-Sep-21 21:40N 76°40' W 092°01'0 4.8
2012-Sep-21 21:35N 76°40' W 092°00'0 0.0
2012-Sep-21 21:20N 76°40' W 092°00'0 0.0
2012-Sep-21 20:58N 76°40' W 092°00'0 1.0
2012-Sep-21 20:53N 76°40' W 092°00'0 3.9
2012-Sep-21 20:46N 76°40' W 092°01'0 7.3
2012-Sep-21 20:43N 76°40' W 092°00'0 7.3
2012-Sep-21 20:40N 76°40' W 092°01'1 9.4
2012-Sep-21 20:34N 76°40' W 091°57'1 1.4
2012-Sep-21 20:03N 76°40' W 091°60'0 0.0
2012-Sep-21 19:57N 76°40' W 091°60'0 0.0
2012-Sep-21 19:54N 76°40' W 091°60'0 1.6
2012-Sep-21 19:47N 76°40' W 092°00'117.2
2012-Sep-21 19:44N 76°41' W 091°58'1 1.9
2012-Sep-21 19:17N 76°40' W 092°00'0 6.2
2012-Sep-21 19:14N 76°40' W 091°60'1 2.9
2012-Sep-21 19:02N 76°40' W 092°02'111.6
2012-Sep-21 18:59N 76°40' W 091°60'0 1.1
2012-Sep-21 18:54N 76°40' W 091°59'0 2.5
2012-Sep-21 18:48N 76°40' W 092°00'0 0.0
2012-Sep-21 18:26N 76°40' W 092°00'0 0.0
2012-Sep-21 18:17N 76°40' W 092°00'0 0.0
2012-Sep-21 18:09N 76°40' W 092°00'0 3.1
2012-Sep-21 18:06N 76°40' W 092°01'0 9.3
2012-Sep-21 18:05N 76°40' W 092°00'0 0.3
2012-Sep-21 17:36N 76°40' W 092°01'0 1.3
2012-Sep-21 17:23N 76°40' W 092°00'0 2.1
2012-Sep-21 17:15N 76°40' W 092°01'0 0.0
2012-Sep-21 17:11N 76°40' W 092°01'0 0.0
2012-Sep-21 17:08N 76°40' W 092°01'0 0.0
2012-Sep-21 16:45N 76°40' W 092°01'0 3.2
2012-Sep-21 16:36N 76°40' W 092°01'0 6.4
2012-Sep-21 16:33N 76°39' W 092°01'1 6.4
2012-Sep-21 16:24N 76°40' W 092°02'0 0.0
2012-Sep-21 15:55N 76°40' W 092°02'1 4.2
2012-Sep-21 15:45N 76°40' W 092°01'0 5.3
2012-Sep-21 15:40N 76°40' W 092°00'0 6.6
2012-Sep-21 15:36N 76°40' W 092°01'0 0.0
2012-Sep-21 15:33N 76°40' W 092°01'0 5.8
2012-Sep-21 15:31N 76°40' W 091°60'0 0.0
2012-Sep-21 15:24N 76°40' W 091°60'0 0.0
2012-Sep-21 14:54N 76°40' W 091°60'0 0.0
2012-Sep-21 14:52N 76°40' W 091°60'0 0.0
2012-Sep-21 14:48N 76°40' W 091°60'0 0.7
2012-Sep-21 14:13N 76°40' W 092°00'0 1.1
2012-Sep-21 13:58N 76°40' W 091°59'0 0.0
2012-Sep-21 13:55N 76°40' W 091°59'0 1.3
2012-Sep-21 13:52N 76°40' W 091°59'0 1.4
2012-Sep-21 13:43N 76°40' W 092°00'0 0.7
2012-Sep-21 13:25N 76°40' W 091°59'0 0.0
2012-Sep-21 13:13N 76°40' W 091°59'0 0.4
2012-Sep-21 13:11N 76°40' W 091°60'0 0.3
2012-Sep-21 12:29N 76°40' W 091°59'1 2.7
2012-Sep-21 12:14N 76°40' W 092°00'0 0.0
2012-Sep-21 12:13N 76°40' W 092°00'0 2.7
2012-Sep-21 12:11N 76°40' W 091°60'0 5.5
2012-Sep-21 12:10N 76°40' W 092°00'1 0.9
2012-Sep-21 11:34N 76°40' W 091°59'0 0.0
2012-Sep-21 11:31N 76°40' W 091°59'0 2.2
2012-Sep-21 11:29N 76°40' W 091°59'0 4.4
2012-Sep-21 11:28N 76°40' W 091°59'0 0.1
2012-Sep-21 10:40N 76°40' W 091°59'0 0.0
2012-Sep-21 10:34N 76°40' W 091°59'0 0.0
2012-Sep-21 10:32N 76°40' W 091°59'0 0.0
2012-Sep-21 09:53N 76°40' W 091°59'0 0.8
2012-Sep-21 09:48N 76°40' W 091°59'0 0.2
2012-Sep-21 08:59N 76°40' W 091°60'0 0.0
2012-Sep-21 08:53N 76°40' W 091°60'0 0.3
2012-Sep-21 08:48N 76°40' W 091°60'0 0.3
2012-Sep-21 08:11N 76°40' W 092°00'0 0.4
2012-Sep-21 07:17N 76°40' W 092°01'0 0.0
2012-Sep-21 07:14N 76°40' W 092°01'0 0.0
2012-Sep-21 07:11N 76°40' W 092°01'0 0.0
2012-Sep-21 07:06N 76°40' W 092°01'0 0.2
2012-Sep-21 06:25N 76°40' W 092°01'1 0.7
2012-Sep-21 05:33N 76°40' W 091°59'0 3.9
2012-Sep-21 05:28N 76°40' W 091°60'018.1
2012-Sep-21 05:27N 76°40' W 092°01'0 0.0
2012-Sep-21 05:24N 76°40' W 092°01'0 0.5
2012-Sep-21 04:48N 76°40' W 091°59'0 0.2
2012-Sep-21 04:37N 76°40' W 091°60'0 0.0
2012-Sep-21 04:34N 76°40' W 091°60'0 0.0
2012-Sep-21 03:54N 76°40' W 091°60'0 0.4
2012-Sep-21 03:52N 76°40' W 091°60'0 3.3
2012-Sep-21 03:49N 76°40' W 091°59'0 1.6
2012-Sep-21 03:43N 76°40' W 091°60'0 0.0
2012-Sep-21 03:38N 76°40' W 091°60'0 0.6
2012-Sep-21 02:58N 76°40' W 092°01'0 0.0
2012-Sep-21 02:56N 76°40' W 092°01'0 0.0
2012-Sep-21 02:11N 76°40' W 092°01'0 7.1
2012-Sep-21 02:07N 76°40' W 091°59'1 6.8
2012-Sep-21 02:01N 76°40' W 092°02'0 0.7
2012-Sep-21 01:25N 76°40' W 091°60'0 2.3
2012-Sep-21 01:16N 76°40' W 092°01'110.9
2012-Sep-21 01:13N 76°40' W 091°59'113.9
2012-Sep-21 01:10N 76°40' W 092°02'0 0.0
2012-Sep-21 00:31N 76°40' W 092°02'0 3.8
2012-Sep-21 00:28N 76°40' W 092°01'0 9.2
2012-Sep-21 00:26N 76°40' W 091°60'0 1.9
2012-Sep-21 00:22N 76°40' W 092°00'0 2.5
2012-Sep-21 00:19N 76°40' W 091°60'0 1.0
2012-Sep-21 00:11N 76°40' W 092°00'0 0.0
2012-Sep-20 23:44N 76°40' W 092°00'0 3.8
2012-Sep-20 23:38N 76°40' W 092°01'0 0.0
2012-Sep-20 23:32N 76°40' W 092°01'125.0
2012-Sep-20 23:30N 76°40' W 091°58'0 0.0
2012-Sep-20 23:26N 76°40' W 091°58'0 0.0
2012-Sep-20 22:48N 76°40' W 091°58'0 1.8
2012-Sep-20 22:45N 76°40' W 091°57'1 9.8
2012-Sep-20 22:39N 76°40' W 092°01'115.7
2012-Sep-20 22:36N 76°40' W 091°60'111.8
2012-Sep-20 22:32N 76°40' W 092°01'0 8.5
2012-Sep-20 22:30N 76°40' W 092°02'110.0
2012-Sep-20 22:26N 76°40' W 091°59'0 0.0
2012-Sep-20 22:09N 76°40' W 091°59'0 0.0
2012-Sep-20 22:03N 76°40' W 091°59'0 3.1
2012-Sep-20 21:57N 76°40' W 092°00'0 0.0
2012-Sep-20 21:53N 76°40' W 092°00'0 4.5
2012-Sep-20 21:50N 76°40' W 092°01'0 1.7
2012-Sep-20 21:45N 76°40' W 092°01'0 7.8
2012-Sep-20 21:42N 76°40' W 092°00'0 0.2
2012-Sep-20 21:09N 76°40' W 092°00'1 3.4
2012-Sep-20 20:59N 76°40' W 092°02'0 0.0
2012-Sep-20 20:54N 76°40' W 092°02'0 0.0
2012-Sep-20 20:51N 76°40' W 092°02'0 0.0
2012-Sep-20 20:47N 76°40' W 092°02'121.2
2012-Sep-20 20:44N 76°41' W 091°59'0 0.0
2012-Sep-20 20:29N 76°41' W 091°59'1 3.1
2012-Sep-20 20:15N 76°40' W 091°59'0 0.0
2012-Sep-20 20:09N 76°40' W 091°59'0 1.4
2012-Sep-20 20:04N 76°40' W 091°59'1 0.9
2012-Sep-20 19:25N 76°40' W 092°00'0 0.0
2012-Sep-20 19:18N 76°40' W 092°00'1 6.9
2012-Sep-20 19:12N 76°40' W 091°59'0 1.7
2012-Sep-20 19:09N 76°40' W 091°59'0 0.9
2012-Sep-20 19:01N 76°40' W 091°59'0 6.4
2012-Sep-20 18:57N 76°40' W 091°60'0 0.8
2012-Sep-20 18:48N 76°40' W 091°60'1 2.6
2012-Sep-20 18:33N 76°40' W 091°59'113.7
2012-Sep-20 18:27N 76°41' W 091°54'235.2
2012-Sep-20 18:24N 76°40' W 091°59'0 0.0
2012-Sep-20 18:22N 76°40' W 091°59'0 0.0
2012-Sep-20 18:18N 76°40' W 091°59'0 0.0
2012-Sep-20 17:43N 76°40' W 091°59'0 5.8
2012-Sep-20 17:40N 76°40' W 092°00'0 1.0
2012-Sep-20 17:24N 76°40' W 091°59'1 8.0
2012-Sep-20 17:18N 76°41' W 092°00'1 2.1
2012-Sep-20 16:52N 76°40' W 092°04'0 0.0
2012-Sep-20 16:43N 76°40' W 092°04'0 0.0
2012-Sep-20 16:36N 76°40' W 092°04'0 0.0
2012-Sep-20 16:34N 76°40' W 092°04'0 0.0
2012-Sep-20 16:05N 76°40' W 092°04'1 5.8
2012-Sep-20 15:56N 76°40' W 092°00'115.6
2012-Sep-20 15:52N 76°39' W 091°59'0 0.0
2012-Sep-20 15:46N 76°39' W 091°59'0 0.0
2012-Sep-20 15:41N 76°39' W 091°59'0 0.0
2012-Sep-20 15:34N 76°39' W 091°59'0 0.0
2012-Sep-20 15:13N 76°39' W 091°59'110.9
2012-Sep-20 15:05N 76°40' W 092°04'0 0.0
2012-Sep-20 14:55N 76°40' W 092°04'1 2.7
2012-Sep-20 14:25N 76°39' W 091°60'116.1
2012-Sep-20 14:20N 76°40' W 092°04'111.5
2012-Sep-20 14:13N 76°39' W 091°60'110.4
2012-Sep-20 14:05N 76°40' W 091°57'1 5.8
2012-Sep-20 13:53N 76°39' W 091°58'0 0.0
2012-Sep-20 13:49N 76°39' W 091°58'0 0.0
2012-Sep-20 13:35N 76°39' W 091°58'0 0.0
2012-Sep-20 13:25N 76°39' W 091°58'0 0.0
2012-Sep-20 13:23N 76°39' W 091°58'1 4.8
2012-Sep-20 13:14N 76°40' W 091°58'0 0.0
2012-Sep-20 12:43N 76°40' W 091°58'0 2.7
2012-Sep-20 12:33N 76°40' W 091°60'0 0.0
2012-Sep-20 12:32N 76°40' W 091°60'0 0.0
2012-Sep-20 12:24N 76°40' W 091°60'0 0.0
2012-Sep-20 12:23N 76°40' W 091°60'0 0.0
2012-Sep-20 12:21N 76°40' W 091°60'0 2.2
2012-Sep-20 12:14N 76°40' W 092°01'0 0.0
2012-Sep-20 12:06N 76°40' W 092°01'0 0.0
2012-Sep-20 11:51N 76°40' W 092°01'1 5.1
2012-Sep-20 11:44N 76°40' W 091°58'0 0.0
2012-Sep-20 10:54N 76°40' W 091°58'0 0.0
2012-Sep-20 10:51N 76°40' W 091°58'214.9
2012-Sep-20 10:44N 76°41' W 092°04'0 0.0
2012-Sep-20 10:42N 76°41' W 092°04'1 2.7
2012-Sep-20 10:14N 76°40' W 092°00'1 3.2
2012-Sep-20 10:03N 76°40' W 091°58'0 0.0
2012-Sep-20 10:00N 76°40' W 091°58'1 4.7
2012-Sep-20 09:53N 76°40' W 092°00'0 0.0
2012-Sep-20 09:12N 76°40' W 092°00'0 0.0
2012-Sep-20 09:07N 76°40' W 092°00'0 0.0
2012-Sep-20 09:04N 76°40' W 092°00'0 0.4
2012-Sep-20 08:39N 76°40' W 092°01'1 4.4
2012-Sep-20 08:31N 76°40' W 091°59'1 3.5
2012-Sep-20 08:21N 76°40' W 092°01'0 0.2
2012-Sep-20 07:27N 76°40' W 092°01'0 0.0
2012-Sep-20 07:25N 76°40' W 092°01'0 0.0
2012-Sep-20 07:19N 76°40' W 092°01'0 0.5
2012-Sep-20 06:57N 76°40' W 092°01'0 0.0
2012-Sep-20 05:46N 76°40' W 092°01'0 2.9
2012-Sep-20 05:37N 76°40' W 092°00'0 0.0
2012-Sep-20 04:47N 76°40' W 092°00'0 0.0
2012-Sep-20 04:02N 76°40' W 092°00'114.4
2012-Sep-20 03:59N 76°40' W 092°03'0 0.0
2012-Sep-20 03:49N 76°40' W 092°03'0 0.0
2012-Sep-20 03:47N 76°40' W 092°03'0 0.0
2012-Sep-20 03:32N 76°40' W 092°03'1 8.9
2012-Sep-20 03:28N 76°40' W 092°01'0 0.0
2012-Sep-20 03:17N 76°40' W 092°01'0 0.0
2012-Sep-20 03:08N 76°40' W 092°01'0 0.0
2012-Sep-20 02:25N 76°40' W 092°01'0 0.0
2012-Sep-20 02:23N 76°40' W 092°01'0 4.0
2012-Sep-20 02:19N 76°40' W 091°60'1 6.8
2012-Sep-20 02:14N 76°40' W 091°57'1 5.7
2012-Sep-20 02:08N 76°40' W 091°60'1 1.5
2012-Sep-20 01:45N 76°40' W 091°57'116.8
2012-Sep-20 01:42N 76°40' W 092°01'0 0.0
2012-Sep-20 01:24N 76°40' W 092°01'0 0.0
2012-Sep-20 00:42N 76°40' W 092°01'0 0.0
2012-Sep-20 00:39N 76°40' W 092°01'0 0.0
2012-Sep-20 00:38N 76°40' W 092°01'0 4.3
2012-Sep-20 00:32N 76°40' W 091°60'0 0.0
2012-Sep-20 00:23N 76°40' W 091°60'0 0.0
2012-Sep-20 00:08N 76°40' W 091°60'1 5.0
2012-Sep-20 00:02N 76°40' W 092°02'0 0.0
2012-Sep-19 23:59N 76°40' W 092°02'0 0.1
2012-Sep-19 23:53N 76°40' W 092°02'117.8
2012-Sep-19 23:51N 76°40' W 091°59'0 0.0
2012-Sep-19 23:41N 76°40' W 091°59'0 0.0
2012-Sep-19 23:00N 76°40' W 091°59'0 0.0
2012-Sep-19 22:59N 76°40' W 091°59'0 0.0
2012-Sep-19 22:57N 76°40' W 091°59'1 5.5
2012-Sep-19 22:51N 76°40' W 092°01'0 0.0
2012-Sep-19 22:44N 76°40' W 092°01'0 0.0
2012-Sep-19 22:41N 76°40' W 092°01'0 0.0
2012-Sep-19 22:15N 76°40' W 092°01'0 0.0
2012-Sep-19 22:10N 76°40' W 092°01'132.9
2012-Sep-19 22:09N 76°40' W 092°02'0 0.6
2012-Sep-19 22:01N 76°40' W 092°01'0 3.8
2012-Sep-19 21:55N 76°40' W 091°60'0 0.0
2012-Sep-19 21:51N 76°40' W 091°60'0 0.5
2012-Sep-19 21:22N 76°40' W 092°01'0 1.9
2012-Sep-19 21:15N 76°40' W 091°60'0 3.2
2012-Sep-19 21:09N 76°40' W 092°00'0 0.0
2012-Sep-19 20:58N 76°40' W 092°00'0 3.5
2012-Sep-19 20:55N 76°40' W 091°60'0 1.8
2012-Sep-19 20:49N 76°40' W 092°00'0 0.8
2012-Sep-19 20:36N 76°40' W 091°60'0 0.0
2012-Sep-19 20:28N 76°40' W 091°60'0 0.0
2012-Sep-19 20:27N 76°40' W 091°60'0 0.2
2012-Sep-19 20:13N 76°40' W 091°60'0 0.7
2012-Sep-19 19:45N 76°40' W 092°00'0 3.2
2012-Sep-19 19:40N 76°40' W 091°60'0 3.9
2012-Sep-19 19:37N 76°40' W 092°00'1 1.7
2012-Sep-19 19:15N 76°40' W 091°58'0 0.0
2012-Sep-19 19:13N 76°40' W 091°58'111.4
2012-Sep-19 19:10N 76°40' W 092°01'0 0.0
2012-Sep-19 18:54N 76°40' W 092°01'0 1.2
2012-Sep-19 18:36N 76°40' W 091°60'0 0.0
2012-Sep-19 18:34N 76°40' W 091°60'113.5
2012-Sep-19 18:30N 76°39' W 091°58'2 3.6
2012-Sep-19 18:04N 76°40' W 092°03'223.6
2012-Sep-19 18:00N 76°39' W 091°58'112.6
2012-Sep-19 17:56N 76°40' W 091°59'0 0.0
2012-Sep-19 17:37N 76°40' W 091°59'0 0.0
2012-Sep-19 17:35N 76°40' W 091°59'0 0.0
2012-Sep-19 17:34N 76°40' W 091°59'0 5.6
2012-Sep-19 17:29N 76°40' W 092°00'0 0.0
2012-Sep-19 17:17N 76°40' W 092°00'0 0.9
2012-Sep-19 17:13N 76°40' W 092°00'0 0.6
2012-Sep-19 16:56N 76°40' W 091°59'0 3.2
2012-Sep-19 16:52N 76°40' W 091°59'0 3.9
2012-Sep-19 16:47N 76°40' W 091°60'0 0.0
2012-Sep-19 16:46N 76°40' W 091°60'0 0.4
2012-Sep-19 16:19N 76°40' W 092°01'0 0.0
2012-Sep-19 16:13N 76°40' W 092°01'0 0.7
2012-Sep-19 15:56N 76°40' W 092°00'0 4.6
2012-Sep-19 15:53N 76°40' W 091°59'0 0.0
2012-Sep-19 15:37N 76°40' W 091°59'0 0.4
2012-Sep-19 15:17N 76°40' W 091°60'0 0.0
2012-Sep-19 15:13N 76°40' W 091°60'0 0.8
2012-Sep-19 14:40N 76°40' W 092°02'0 6.6
2012-Sep-19 14:37N 76°40' W 092°00'0 0.6
2012-Sep-19 14:17N 76°40' W 091°60'012.3
2012-Sep-19 14:16N 76°40' W 092°00'0 4.1
2012-Sep-19 14:13N 76°40' W 091°60'0 3.4
2012-Sep-19 14:07N 76°40' W 092°01'0 0.0
2012-Sep-19 14:05N 76°40' W 092°01'0 0.0
2012-Sep-19 14:01N 76°40' W 092°01'0 0.0
2012-Sep-19 13:58N 76°40' W 092°01'0 0.0
2012-Sep-19 13:36N 76°40' W 092°01'0 0.8
2012-Sep-19 13:35N 76°40' W 092°01'0 0.4
2012-Sep-19 12:57N 76°40' W 092°00'0 0.0
2012-Sep-19 12:56N 76°40' W 092°00'0 0.0
2012-Sep-19 12:53N 76°40' W 092°00'0 0.0
2012-Sep-19 12:35N 76°40' W 092°00'0 0.5
2012-Sep-19 12:18N 76°40' W 091°60'0 0.8
2012-Sep-19 11:57N 76°40' W 092°01'0 0.0
2012-Sep-19 11:54N 76°40' W 092°01'0 0.0
2012-Sep-19 11:44N 76°40' W 092°01'0 0.0
2012-Sep-19 11:14N 76°40' W 092°01'0 0.0
2012-Sep-19 11:12N 76°40' W 092°01'0 0.0
2012-Sep-19 11:11N 76°40' W 092°01'1 4.7
2012-Sep-19 10:56N 76°39' W 091°58'1 8.0
2012-Sep-19 10:47N 76°40' W 092°02'1 3.3
2012-Sep-19 10:38N 76°40' W 091°60'0 1.3
2012-Sep-19 10:15N 76°40' W 092°02'0 0.2
2012-Sep-19 09:25N 76°40' W 092°01'0 0.0
2012-Sep-19 09:15N 76°40' W 092°01'0 1.2
2012-Sep-19 08:52N 76°40' W 092°00'026.3
2012-Sep-19 08:51N 76°40' W 092°01'0 0.0
2012-Sep-19 08:28N 76°40' W 092°01'0 0.1
2012-Sep-19 07:31N 76°40' W 092°01'0 0.0
2012-Sep-19 07:30N 76°40' W 092°01'1 1.5
2012-Sep-19 07:09N 76°40' W 091°59'0 0.0
2012-Sep-19 06:49N 76°40' W 091°59'1 1.4
2012-Sep-19 06:03N 76°40' W 092°03'1 6.5
2012-Sep-19 05:55N 76°40' W 091°60'0 0.0
2012-Sep-19 05:49N 76°40' W 091°60'0 0.5
2012-Sep-19 05:04N 76°40' W 092°01'0 0.0
2012-Sep-19 04:23N 76°40' W 092°01'0 1.6
2012-Sep-19 04:14N 76°40' W 092°00'0 3.7
2012-Sep-19 04:11N 76°40' W 092°00'0 0.0
2012-Sep-19 04:08N 76°40' W 092°00'0 0.0
2012-Sep-19 04:04N 76°40' W 092°00'0 0.0
2012-Sep-19 03:55N 76°40' W 092°00'0 2.3
2012-Sep-19 03:52N 76°40' W 092°00'0 0.0
2012-Sep-19 03:41N 76°40' W 092°00'0 0.0
2012-Sep-19 02:44N 76°40' W 092°00'0 1.5
2012-Sep-19 02:34N 76°40' W 091°60'0 0.4
2012-Sep-19 02:32N 76°40' W 091°60'0 1.3
2012-Sep-19 02:11N 76°40' W 092°02'0 0.0
2012-Sep-19 02:07N 76°40' W 092°02'0 0.0
2012-Sep-19 01:59N 76°40' W 092°02'0 0.0
2012-Sep-19 01:00N 76°40' W 092°02'0 0.0
2012-Sep-19 00:54N 76°40' W 092°02'0 0.0
2012-Sep-19 00:51N 76°40' W 092°02'0 3.0
2012-Sep-19 00:45N 76°40' W 092°00'0 0.0
2012-Sep-19 00:32N 76°40' W 092°00'0 1.2
2012-Sep-19 00:21N 76°40' W 091°60'0 0.8
2012-Sep-18 23:50N 76°40' W 092°01'0 0.0
2012-Sep-18 23:48N 76°40' W 092°01'0 1.0
2012-Sep-18 23:24N 76°40' W 092°00'0 0.9
2012-Sep-18 23:20N 76°40' W 092°00'0 9.9
2012-Sep-18 23:18N 76°40' W 092°01'116.4
2012-Sep-18 23:14N 76°41' W 091°58'0 1.3
2012-Sep-18 23:11N 76°41' W 091°58'113.1
2012-Sep-18 23:08N 76°40' W 091°60'0 1.5
2012-Sep-18 23:03N 76°40' W 091°59'0 0.0
2012-Sep-18 23:02N 76°40' W 091°59'0 0.0
2012-Sep-18 22:48N 76°40' W 091°59'0 0.0
2012-Sep-18 22:47N 76°40' W 091°59'0 0.0
2012-Sep-18 22:41N 76°40' W 091°59'0 5.3
2012-Sep-18 22:38N 76°40' W 091°59'0 0.0
2012-Sep-18 22:11N 76°40' W 091°59'1 5.6
2012-Sep-18 22:05N 76°40' W 092°01'0 0.0
2012-Sep-18 22:03N 76°40' W 092°01'0 0.9
2012-Sep-18 21:45N 76°40' W 092°00'015.9
2012-Sep-18 21:44N 76°40' W 092°01'0 0.0
2012-Sep-18 21:35N 76°40' W 092°01'0 0.0
2012-Sep-18 21:33N 76°40' W 092°01'0 6.2
2012-Sep-18 21:29N 76°40' W 091°59'0 0.3
2012-Sep-18 21:06N 76°40' W 091°59'0 5.6
2012-Sep-18 21:01N 76°40' W 092°01'0 4.4
2012-Sep-18 20:55N 76°40' W 091°60'0 0.0
2012-Sep-18 20:52N 76°40' W 091°60'0 0.0
2012-Sep-18 20:27N 76°40' W 091°60'0 0.3
2012-Sep-18 20:04N 76°40' W 092°00'0 2.0
2012-Sep-18 19:55N 76°40' W 092°00'0 0.0
2012-Sep-18 19:52N 76°40' W 092°00'0 0.0
2012-Sep-18 19:48N 76°40' W 092°00'0 1.5
2012-Sep-18 19:36N 76°40' W 091°60'0 0.0
2012-Sep-18 19:27N 76°40' W 091°60'0 0.9
2012-Sep-18 19:19N 76°40' W 091°60'0 0.0
2012-Sep-18 19:18N 76°40' W 091°60'0 0.4
2012-Sep-18 18:48N 76°40' W 091°59'0 1.2
2012-Sep-18 18:46N 76°40' W 091°59'1 7.8
2012-Sep-18 18:40N 76°39' W 091°58'0 0.0
2012-Sep-18 18:13N 76°39' W 091°58'0 0.0
2012-Sep-18 18:12N 76°39' W 091°58'0 8.3
2012-Sep-18 18:10N 76°40' W 091°59'0 2.1
2012-Sep-18 17:57N 76°40' W 092°00'0 0.0
2012-Sep-18 17:46N 76°40' W 092°00'0 5.0
2012-Sep-18 17:45N 76°40' W 091°60'0 0.8
2012-Sep-18 17:39N 76°40' W 092°00'0 8.3
2012-Sep-18 17:37N 76°40' W 091°59'0 0.0
2012-Sep-18 17:36N 76°40' W 091°59'0 0.8
2012-Sep-18 17:06N 76°40' W 092°01'0 1.2
2012-Sep-18 16:43N 76°40' W 092°00'0 2.4
2012-Sep-18 16:32N 76°40' W 092°01'0 0.0
2012-Sep-18 16:31N 76°40' W 092°01'0 1.6
2012-Sep-18 16:26N 76°40' W 092°01'0 0.8
2012-Sep-18 16:17N 76°40' W 092°00'0 1.6
2012-Sep-18 16:05N 76°40' W 091°59'0 3.7
2012-Sep-18 16:04N 76°40' W 091°59'0 2.1
2012-Sep-18 15:56N 76°40' W 091°60'0 0.1
2012-Sep-18 15:28N 76°41' W 091°60'012.7
2012-Sep-18 15:26N 76°40' W 092°00'0 0.0
2012-Sep-18 15:16N 76°40' W 092°00'0 1.4
2012-Sep-18 15:02N 76°40' W 092°01'0 0.0
2012-Sep-18 14:59N 76°40' W 092°01'0 4.9
2012-Sep-18 14:55N 76°40' W 092°00'0 0.0
2012-Sep-18 14:50N 76°40' W 092°00'0 0.7
2012-Sep-18 14:35N 76°40' W 092°01'0 0.8
2012-Sep-18 14:26N 76°40' W 092°01'0 1.2
2012-Sep-18 14:16N 76°40' W 092°00'0 0.0
2012-Sep-18 13:46N 76°40' W 092°00'0 0.0
2012-Sep-18 13:20N 76°40' W 092°00'0 1.2
2012-Sep-18 13:17N 76°40' W 092°00'0 0.0
2012-Sep-18 13:08N 76°40' W 092°00'0 0.7
2012-Sep-18 12:56N 76°40' W 092°00'0 0.0
2012-Sep-18 12:46N 76°40' W 092°00'1 0.9
2012-Sep-18 12:06N 76°40' W 091°58'0 0.0
2012-Sep-18 12:05N 76°40' W 091°58'0 0.0
2012-Sep-18 11:14N 76°40' W 091°58'0 0.0
2012-Sep-18 11:06N 76°40' W 091°58'1 9.2
2012-Sep-18 11:00N 76°40' W 092°01'0 0.0
2012-Sep-18 10:21N 76°40' W 092°01'0 0.2
2012-Sep-18 09:23N 76°40' W 092°02'0 0.0
2012-Sep-18 08:42N 76°40' W 092°02'0 0.5
2012-Sep-18 08:04N 76°40' W 092°01'0 0.0
2012-Sep-18 07:49N 76°40' W 092°01'0 0.0
2012-Sep-18 07:43N 76°40' W 092°01'0 0.0
2012-Sep-18 07:39N 76°40' W 092°01'0 0.7
2012-Sep-18 07:01N 76°40' W 091°60'0 0.4
2012-Sep-18 06:25N 76°40' W 091°59'1 1.9
2012-Sep-18 06:07N 76°40' W 091°60'112.2
2012-Sep-18 06:04N 76°40' W 091°59'0 0.0
2012-Sep-18 06:01N 76°40' W 091°59'1 0.7
2012-Sep-18 05:15N 76°40' W 092°01'0 0.0
2012-Sep-18 04:45N 76°40' W 092°01'0 1.2
2012-Sep-18 04:28N 76°40' W 091°60'0 1.2
2012-Sep-18 04:25N 76°40' W 091°60'0 3.1
2012-Sep-18 04:16N 76°40' W 092°02'0 0.0
2012-Sep-18 04:15N 76°40' W 092°02'0 0.0
2012-Sep-18 03:05N 76°40' W 092°02'0 0.6
2012-Sep-18 02:47N 76°40' W 092°01'0 1.3
2012-Sep-18 02:35N 76°40' W 092°02'0 0.0
2012-Sep-18 02:23N 76°40' W 092°02'0 0.0
2012-Sep-18 01:43N 76°40' W 092°02'0 0.0
2012-Sep-18 01:25N 76°40' W 092°02'0 0.0
2012-Sep-18 01:22N 76°40' W 092°02'0 0.4
2012-Sep-18 01:07N 76°40' W 092°02'0 2.6
2012-Sep-18 00:56N 76°40' W 091°60'1 3.1
2012-Sep-18 00:46N 76°40' W 092°02'0 6.0
2012-Sep-18 00:43N 76°40' W 092°01'0 0.0
2012-Sep-18 00:38N 76°40' W 092°01'0 0.3
2012-Sep-18 00:02N 76°40' W 092°00'0 0.0
2012-Sep-17 23:59N 76°40' W 092°00'0 0.7
2012-Sep-17 23:44N 76°40' W 092°01'0 1.4
2012-Sep-17 23:36N 76°40' W 092°00'0 2.5
2012-Sep-17 23:26N 76°40' W 092°01'0 0.0
2012-Sep-17 23:23N 76°40' W 092°01'0 2.4
2012-Sep-17 23:21N 76°40' W 092°01'0 7.2
2012-Sep-17 23:17N 76°40' W 091°59'0 0.0
2012-Sep-17 23:15N 76°40' W 091°59'0 3.7
2012-Sep-17 23:09N 76°40' W 092°01'0 0.0
2012-Sep-17 23:06N 76°40' W 092°01'1 9.7
2012-Sep-17 23:02N 76°40' W 091°58'0 0.0
2012-Sep-17 23:00N 76°40' W 091°58'0 0.0
2012-Sep-17 22:57N 76°40' W 091°58'0 0.1
2012-Sep-17 22:18N 76°40' W 091°58'115.8
2012-Sep-17 22:15N 76°40' W 092°01'0 1.0
2012-Sep-17 22:05N 76°40' W 092°01'1 5.4
2012-Sep-17 21:59N 76°40' W 092°01'012.9
2012-Sep-17 21:57N 76°40' W 092°01'0 0.0
2012-Sep-17 21:39N 76°40' W 092°01'013.0
2012-Sep-17 21:38N 76°40' W 092°00'0 3.2
2012-Sep-17 21:33N 76°40' W 091°59'0 0.0
2012-Sep-17 21:29N 76°40' W 091°59'0 0.0
2012-Sep-17 21:20N 76°40' W 091°59'0 0.0
2012-Sep-17 21:18N 76°40' W 091°59'0 0.0
2012-Sep-17 21:15N 76°40' W 091°59'0 0.4
2012-Sep-17 20:39N 76°40' W 091°60'018.1
2012-Sep-17 20:38N 76°40' W 091°60'0 0.6
2012-Sep-17 20:21N 76°40' W 092°00'0 2.4
2012-Sep-17 20:17N 76°40' W 091°60'0 0.0
2012-Sep-17 20:04N 76°40' W 091°60'0 0.0
2012-Sep-17 20:03N 76°40' W 091°60'2 5.8
2012-Sep-17 19:46N 76°39' W 092°05'216.6
2012-Sep-17 19:40N 76°40' W 091°60'0 2.3
2012-Sep-17 19:37N 76°40' W 092°00'0 0.0
2012-Sep-17 19:34N 76°40' W 092°00'0 2.8
2012-Sep-17 19:30N 76°40' W 091°59'0 0.0
2012-Sep-17 19:00N 76°40' W 091°59'0 1.6
2012-Sep-17 18:57N 76°40' W 091°60'0 4.5
2012-Sep-17 18:51N 76°40' W 091°59'0 3.7
2012-Sep-17 18:43N 76°40' W 091°59'0 0.0
2012-Sep-17 18:39N 76°40' W 091°59'0 2.0
2012-Sep-17 18:24N 76°40' W 091°59'234.2
2012-Sep-17 18:21N 76°41' W 092°02'1 3.9
2012-Sep-17 18:04N 76°40' W 092°00'0 0.0
2012-Sep-17 18:01N 76°40' W 092°00'0 9.3
2012-Sep-17 18:00N 76°40' W 092°01'0 0.5
2012-Sep-17 17:55N 76°40' W 092°01'0 4.6
2012-Sep-17 17:51N 76°40' W 091°60'0 0.0
2012-Sep-17 17:19N 76°40' W 091°60'0 0.0
2012-Sep-17 17:16N 76°40' W 091°60'0 3.4
2012-Sep-17 17:10N 76°40' W 091°59'0 3.8
2012-Sep-17 17:04N 76°40' W 092°00'0 0.4
2012-Sep-17 17:00N 76°40' W 092°00'1 2.9
2012-Sep-17 16:42N 76°41' W 091°58'0 0.0
2012-Sep-17 16:19N 76°41' W 091°58'1 9.4
2012-Sep-17 16:14N 76°40' W 092°00'0 0.0
2012-Sep-17 16:07N 76°40' W 092°00'0 0.0
2012-Sep-17 15:40N 76°40' W 092°00'0 0.0
2012-Sep-17 15:38N 76°40' W 092°00'0 0.0
2012-Sep-17 15:35N 76°40' W 092°00'0 0.7
2012-Sep-17 15:28N 76°40' W 092°00'0 1.2
2012-Sep-17 15:23N 76°40' W 092°00'0 1.2
2012-Sep-17 15:17N 76°40' W 092°00'0 1.6
2012-Sep-17 15:14N 76°40' W 092°00'0 0.0
2012-Sep-17 15:02N 76°40' W 092°00'1 5.5
2012-Sep-17 14:47N 76°39' W 091°55'1 9.4
2012-Sep-17 14:38N 76°40' W 092°01'  

Dump ship's entire track history

sailing weather and tide predictions

Buoy 47557